Aérodrome :
LOGIN :

S'inscrire | Disclaimer

   EN    FR    IT 

 










Légende :    VFR   VFR Marginal   IFR   IFR Intensif   IFR Très Intensif
Visi : 
Plafond : 
>= 8 km
>= 3000ft
5 à 8 km
1000 à 3000 ft
1500m à 5 km
500 à 1000 ft
800 à 1500m
200 à 500 ft
< 800m
< 200 ft
Symboles :   Orages  Brouillard  Fortes neiges  Fortes précipitations  Vent > 20 kt
SIGMETs :   Divers  Orages  Givrage  Turbulence  Onde Orograph.  Cendres Volcan.






- Altitude de l'aérodrome : 50 ft
- Code IATA : KOI


EGPA - Kirkwall

DERNIER METAR :
  • 171550Z 24027G37KT 9999 FEW012 SCT025 07/04 Q0997

METARs EXPIRÉS :
  • 171520Z 25030KT 9999 FEW012 SCT025 07/04 Q0997
  • 171450Z 24028G38KT 9999 FEW012 SCT025 07/03 Q0996
  • 171420Z 24031G45KT 9999 SCT025 08/03 Q0996
  • 171350Z 24027G37KT 9999 -RA SCT025 08/03 Q0996
  • 171320Z 23024G34KT 9999 -RA SCT025 07/03 Q0995
  • 171250Z 22023KT 9999 SCT025 07/03 Q0995

TAF TAF EGPA
Valide du 17 à 15h jusqu'au 18 à 00h UTC


171358Z 1715/1724 23022G34KT 9999 FEW030
BECMG 1715/1718 26020G32KT
PROB40
TEMPO 1715/1724 6000 SHRA BKN014
BECMG 1721/1724 29018G28KT



MET'MAP, la Météo Aéronautique d'un coup d'oeil ! - Copyright ORBIFLY Décembre 2007 - Disclaimer

ORBIFLY MET'MAP TEAM :

Programmation & Développement : Alexandra Zaïnal
Sur une idée originale de : Baudouin d'Aumeries
Assistance à la programmation : Marc-Olivier Méhu
Soutien technique & logistique : Manuel Goepfert

Contact : metmap@orbifly.com




SOURCES & CREDITS :

   NOAA